sensor_id;sensor_type;location;lat;lon;timestamp;P1;durP1;ratioP1;P2;durP2;ratioP2
22794;SDS011;11564;50.920;11.612;2023-05-07T00:01:15;31.17;;;21.10;;
22794;SDS011;11564;50.920;11.612;2023-05-07T00:03:41;34.57;;;21.93;;
22794;SDS011;11564;50.920;11.612;2023-05-07T00:06:06;33.57;;;22.20;;
22794;SDS011;11564;50.920;11.612;2023-05-07T00:08:32;35.60;;;24.13;;
22794;SDS011;11564;50.920;11.612;2023-05-07T00:10:58;32.03;;;22.63;;
22794;SDS011;11564;50.920;11.612;2023-05-07T00:13:23;42.73;;;25.00;;
22794;SDS011;11564;50.920;11.612;2023-05-07T00:15:49;37.47;;;24.03;;
22794;SDS011;11564;50.920;11.612;2023-05-07T00:18:14;37.20;;;24.40;;
22794;SDS011;11564;50.920;11.612;2023-05-07T00:20:40;38.60;;;25.57;;
22794;SDS011;11564;50.920;11.612;2023-05-07T00:23:06;33.63;;;24.40;;
22794;SDS011;11564;50.920;11.612;2023-05-07T00:25:32;34.27;;;26.03;;
22794;SDS011;11564;50.920;11.612;2023-05-07T00:27:57;37.50;;;27.20;;
22794;SDS011;11564;50.920;11.612;2023-05-07T00:30:28;40.10;;;27.80;;
22794;SDS011;11564;50.920;11.612;2023-05-07T00:32:54;42.00;;;28.13;;
22794;SDS011;11564;50.920;11.612;2023-05-07T00:35:20;41.37;;;28.07;;
22794;SDS011;11564;50.920;11.612;2023-05-07T00:37:45;43.93;;;29.30;;
22794;SDS011;11564;50.920;11.612;2023-05-07T00:40:11;42.20;;;28.47;;
22794;SDS011;11564;50.920;11.612;2023-05-07T00:42:37;47.73;;;28.70;;
22794;SDS011;11564;50.920;11.612;2023-05-07T00:45:03;40.03;;;27.77;;
22794;SDS011;11564;50.920;11.612;2023-05-07T00:47:29;45.90;;;30.50;;
22794;SDS011;11564;50.920;11.612;2023-05-07T00:49:55;43.33;;;30.37;;
22794;SDS011;11564;50.920;11.612;2023-05-07T00:52:22;46.90;;;29.63;;
22794;SDS011;11564;50.920;11.612;2023-05-07T00:54:51;43.10;;;30.27;;
22794;SDS011;11564;50.920;11.612;2023-05-07T00:57:17;41.80;;;28.93;;
22794;SDS011;11564;50.920;11.612;2023-05-07T00:59:43;38.43;;;26.50;;
22794;SDS011;11564;50.920;11.612;2023-05-07T01:02:08;44.47;;;29.67;;
22794;SDS011;11564;50.920;11.612;2023-05-07T01:04:35;38.50;;;26.40;;
22794;SDS011;11564;50.920;11.612;2023-05-07T01:07:01;42.50;;;28.47;;
22794;SDS011;11564;50.920;11.612;2023-05-07T01:09:28;41.60;;;27.67;;
22794;SDS011;11564;50.920;11.612;2023-05-07T01:11:54;41.73;;;27.37;;
22794;SDS011;11564;50.920;11.612;2023-05-07T01:14:22;40.57;;;26.97;;
22794;SDS011;11564;50.920;11.612;2023-05-07T01:16:48;41.67;;;26.40;;
22794;SDS011;11564;50.920;11.612;2023-05-07T01:19:18;39.70;;;26.43;;
22794;SDS011;11564;50.920;11.612;2023-05-07T01:21:47;46.73;;;27.03;;
22794;SDS011;11564;50.920;11.612;2023-05-07T01:24:14;39.63;;;26.60;;
22794;SDS011;11564;50.920;11.612;2023-05-07T01:26:40;38.53;;;25.10;;
22794;SDS011;11564;50.920;11.612;2023-05-07T01:29:07;37.47;;;24.90;;
22794;SDS011;11564;50.920;11.612;2023-05-07T01:31:33;39.83;;;25.67;;
22794;SDS011;11564;50.920;11.612;2023-05-07T01:34:00;34.50;;;24.20;;
22794;SDS011;11564;50.920;11.612;2023-05-07T01:36:29;34.77;;;23.87;;
22794;SDS011;11564;50.920;11.612;2023-05-07T01:38:56;31.53;;;22.67;;
22794;SDS011;11564;50.920;11.612;2023-05-07T01:41:23;33.90;;;22.70;;
22794;SDS011;11564;50.920;11.612;2023-05-07T01:43:49;34.90;;;23.20;;
22794;SDS011;11564;50.920;11.612;2023-05-07T01:46:17;29.57;;;21.30;;
22794;SDS011;11564;50.920;11.612;2023-05-07T01:48:43;32.40;;;20.73;;
22794;SDS011;11564;50.920;11.612;2023-05-07T01:51:10;35.27;;;21.63;;
22794;SDS011;11564;50.920;11.612;2023-05-07T01:53:37;28.63;;;21.00;;
22794;SDS011;11564;50.920;11.612;2023-05-07T01:56:03;26.80;;;19.53;;
22794;SDS011;11564;50.920;11.612;2023-05-07T01:58:30;27.20;;;19.40;;
22794;SDS011;11564;50.920;11.612;2023-05-07T02:00:55;26.23;;;19.40;;
22794;SDS011;11564;50.920;11.612;2023-05-07T02:03:21;28.33;;;21.00;;
22794;SDS011;11564;50.920;11.612;2023-05-07T02:05:46;32.00;;;21.90;;
22794;SDS011;11564;50.920;11.612;2023-05-07T02:08:12;30.67;;;22.17;;
22794;SDS011;11564;50.920;11.612;2023-05-07T02:10:37;28.00;;;19.67;;
22794;SDS011;11564;50.920;11.612;2023-05-07T02:13:03;29.70;;;20.10;;
22794;SDS011;11564;50.920;11.612;2023-05-07T02:15:29;26.07;;;21.20;;
22794;SDS011;11564;50.920;11.612;2023-05-07T02:18:04;32.27;;;21.37;;
22794;SDS011;11564;50.920;11.612;2023-05-07T02:20:31;28.13;;;20.10;;
22794;SDS011;11564;50.920;11.612;2023-05-07T02:22:57;29.80;;;19.20;;
22794;SDS011;11564;50.920;11.612;2023-05-07T02:25:23;25.47;;;18.23;;
22794;SDS011;11564;50.920;11.612;2023-05-07T02:27:49;25.73;;;19.37;;
22794;SDS011;11564;50.920;11.612;2023-05-07T02:30:14;26.47;;;19.47;;
22794;SDS011;11564;50.920;11.612;2023-05-07T02:32:40;29.07;;;17.80;;
22794;SDS011;11564;50.920;11.612;2023-05-07T02:35:06;24.97;;;17.57;;
22794;SDS011;11564;50.920;11.612;2023-05-07T02:37:32;24.90;;;17.30;;
22794;SDS011;11564;50.920;11.612;2023-05-07T02:39:57;26.43;;;18.00;;
22794;SDS011;11564;50.920;11.612;2023-05-07T02:42:23;27.03;;;18.10;;
22794;SDS011;11564;50.920;11.612;2023-05-07T02:44:49;23.67;;;16.40;;
22794;SDS011;11564;50.920;11.612;2023-05-07T02:47:14;24.57;;;16.60;;
22794;SDS011;11564;50.920;11.612;2023-05-07T02:49:40;22.47;;;15.97;;
22794;SDS011;11564;50.920;11.612;2023-05-07T02:52:06;20.93;;;15.10;;
22794;SDS011;11564;50.920;11.612;2023-05-07T02:54:32;24.20;;;16.17;;
22794;SDS011;11564;50.920;11.612;2023-05-07T02:56:58;20.97;;;15.93;;
22794;SDS011;11564;50.920;11.612;2023-05-07T02:59:25;25.20;;;14.73;;
22794;SDS011;11564;50.920;11.612;2023-05-07T03:01:51;18.83;;;14.23;;
22794;SDS011;11564;50.920;11.612;2023-05-07T03:04:17;17.47;;;13.70;;
22794;SDS011;11564;50.920;11.612;2023-05-07T03:06:42;16.50;;;12.57;;
22794;SDS011;11564;50.920;11.612;2023-05-07T03:09:08;16.50;;;13.03;;
22794;SDS011;11564;50.920;11.612;2023-05-07T03:11:33;15.23;;;11.77;;
22794;SDS011;11564;50.920;11.612;2023-05-07T03:14:00;18.63;;;11.50;;
22794;SDS011;11564;50.920;11.612;2023-05-07T03:16:26;13.43;;;11.77;;
22794;SDS011;11564;50.920;11.612;2023-05-07T03:18:52;16.40;;;11.10;;
22794;SDS011;11564;50.920;11.612;2023-05-07T03:21:17;14.10;;;11.30;;
22794;SDS011;11564;50.920;11.612;2023-05-07T03:23:43;13.37;;;11.47;;
22794;SDS011;11564;50.920;11.612;2023-05-07T03:26:09;12.50;;;10.63;;
22794;SDS011;11564;50.920;11.612;2023-05-07T03:28:34;14.40;;;12.37;;
22794;SDS011;11564;50.920;11.612;2023-05-07T03:31:00;14.60;;;10.30;;
22794;SDS011;11564;50.920;11.612;2023-05-07T03:33:26;15.03;;;11.23;;
22794;SDS011;11564;50.920;11.612;2023-05-07T03:35:52;15.03;;;11.10;;
22794;SDS011;11564;50.920;11.612;2023-05-07T03:38:18;13.23;;;10.77;;
22794;SDS011;11564;50.920;11.612;2023-05-07T03:40:43;14.00;;;11.53;;
22794;SDS011;11564;50.920;11.612;2023-05-07T03:43:09;17.83;;;12.37;;
22794;SDS011;11564;50.920;11.612;2023-05-07T03:45:35;13.50;;;11.13;;
22794;SDS011;11564;50.920;11.612;2023-05-07T03:48:01;16.40;;;11.20;;
22794;SDS011;11564;50.920;11.612;2023-05-07T03:50:26;15.53;;;12.17;;
22794;SDS011;11564;50.920;11.612;2023-05-07T03:52:52;15.10;;;12.60;;
22794;SDS011;11564;50.920;11.612;2023-05-07T03:55:17;14.97;;;12.43;;
22794;SDS011;11564;50.920;11.612;2023-05-07T03:57:43;11.70;;;10.10;;
22794;SDS011;11564;50.920;11.612;2023-05-07T04:00:09;16.70;;;11.43;;
22794;SDS011;11564;50.920;11.612;2023-05-07T04:02:35;15.20;;;12.30;;
22794;SDS011;11564;50.920;11.612;2023-05-07T04:05:00;16.60;;;12.70;;
22794;SDS011;11564;50.920;11.612;2023-05-07T04:07:26;17.30;;;12.50;;
22794;SDS011;11564;50.920;11.612;2023-05-07T04:09:51;16.60;;;12.70;;
22794;SDS011;11564;50.920;11.612;2023-05-07T04:12:17;16.97;;;13.00;;
22794;SDS011;11564;50.920;11.612;2023-05-07T04:14:43;20.00;;;14.00;;
22794;SDS011;11564;50.920;11.612;2023-05-07T04:17:08;20.50;;;14.80;;
22794;SDS011;11564;50.920;11.612;2023-05-07T04:19:35;21.27;;;15.10;;
22794;SDS011;11564;50.920;11.612;2023-05-07T04:22:01;20.90;;;15.93;;
22794;SDS011;11564;50.920;11.612;2023-05-07T04:24:27;22.53;;;16.60;;
22794;SDS011;11564;50.920;11.612;2023-05-07T04:26:52;21.20;;;16.93;;
22794;SDS011;11564;50.920;11.612;2023-05-07T04:29:18;25.17;;;17.83;;
22794;SDS011;11564;50.920;11.612;2023-05-07T04:31:44;24.80;;;17.53;;
22794;SDS011;11564;50.920;11.612;2023-05-07T04:34:10;25.70;;;18.10;;
22794;SDS011;11564;50.920;11.612;2023-05-07T04:36:37;24.80;;;18.20;;
22794;SDS011;11564;50.920;11.612;2023-05-07T04:39:03;22.70;;;17.13;;
22794;SDS011;11564;50.920;11.612;2023-05-07T04:41:29;27.23;;;17.67;;
22794;SDS011;11564;50.920;11.612;2023-05-07T04:43:55;21.97;;;16.23;;
22794;SDS011;11564;50.920;11.612;2023-05-07T04:46:21;25.03;;;15.90;;
22794;SDS011;11564;50.920;11.612;2023-05-07T04:48:48;23.73;;;17.37;;
22794;SDS011;11564;50.920;11.612;2023-05-07T04:51:14;21.60;;;15.80;;
22794;SDS011;11564;50.920;11.612;2023-05-07T04:53:41;22.57;;;15.87;;
22794;SDS011;11564;50.920;11.612;2023-05-07T04:56:09;24.73;;;16.30;;
22794;SDS011;11564;50.920;11.612;2023-05-07T04:58:34;23.33;;;14.80;;
22794;SDS011;11564;50.920;11.612;2023-05-07T05:01:00;21.80;;;14.60;;
22794;SDS011;11564;50.920;11.612;2023-05-07T05:03:26;22.87;;;14.50;;
22794;SDS011;11564;50.920;11.612;2023-05-07T05:05:52;21.03;;;14.20;;
22794;SDS011;11564;50.920;11.612;2023-05-07T05:08:18;21.43;;;14.10;;
22794;SDS011;11564;50.920;11.612;2023-05-07T05:10:43;24.53;;;14.63;;
22794;SDS011;11564;50.920;11.612;2023-05-07T05:13:09;20.43;;;14.77;;
22794;SDS011;11564;50.920;11.612;2023-05-07T05:15:37;17.83;;;12.20;;
22794;SDS011;11564;50.920;11.612;2023-05-07T05:18:03;20.67;;;13.77;;
22794;SDS011;11564;50.920;11.612;2023-05-07T05:20:30;21.10;;;13.17;;
22794;SDS011;11564;50.920;11.612;2023-05-07T05:22:55;20.70;;;13.70;;
22794;SDS011;11564;50.920;11.612;2023-05-07T05:25:21;15.47;;;12.53;;
22794;SDS011;11564;50.920;11.612;2023-05-07T05:27:47;17.70;;;12.90;;
22794;SDS011;11564;50.920;11.612;2023-05-07T05:30:13;14.20;;;11.47;;
22794;SDS011;11564;50.920;11.612;2023-05-07T05:32:39;14.00;;;11.20;;
22794;SDS011;11564;50.920;11.612;2023-05-07T05:35:04;14.17;;;11.77;;
22794;SDS011;11564;50.920;11.612;2023-05-07T05:37:30;13.60;;;11.60;;
22794;SDS011;11564;50.920;11.612;2023-05-07T05:39:56;16.70;;;12.33;;
22794;SDS011;11564;50.920;11.612;2023-05-07T05:42:22;15.17;;;11.20;;
22794;SDS011;11564;50.920;11.612;2023-05-07T05:44:48;14.07;;;11.30;;
22794;SDS011;11564;50.920;11.612;2023-05-07T05:47:13;14.70;;;10.90;;
22794;SDS011;11564;50.920;11.612;2023-05-07T05:49:39;14.70;;;11.60;;
22794;SDS011;11564;50.920;11.612;2023-05-07T05:52:05;17.33;;;11.90;;
22794;SDS011;11564;50.920;11.612;2023-05-07T05:54:30;15.20;;;11.13;;
22794;SDS011;11564;50.920;11.612;2023-05-07T05:56:56;13.97;;;11.60;;
22794;SDS011;11564;50.920;11.612;2023-05-07T05:59:22;12.27;;;10.07;;
22794;SDS011;11564;50.920;11.612;2023-05-07T06:01:48;14.23;;;10.93;;
22794;SDS011;11564;50.920;11.612;2023-05-07T06:04:13;11.60;;;10.00;;
22794;SDS011;11564;50.920;11.612;2023-05-07T06:06:39;15.17;;;10.17;;
22794;SDS011;11564;50.920;11.612;2023-05-07T06:09:05;12.50;;;10.20;;
22794;SDS011;11564;50.920;11.612;2023-05-07T06:11:31;13.30;;;10.83;;
22794;SDS011;11564;50.920;11.612;2023-05-07T06:13:57;12.67;;;10.80;;
22794;SDS011;11564;50.920;11.612;2023-05-07T06:16:24;10.90;;;9.60;;
22794;SDS011;11564;50.920;11.612;2023-05-07T06:18:50;11.07;;;9.43;;
22794;SDS011;11564;50.920;11.612;2023-05-07T06:21:15;12.27;;;10.23;;
22794;SDS011;11564;50.920;11.612;2023-05-07T06:23:41;13.17;;;9.97;;
22794;SDS011;11564;50.920;11.612;2023-05-07T06:26:06;14.20;;;9.50;;
22794;SDS011;11564;50.920;11.612;2023-05-07T06:28:32;12.30;;;10.00;;
22794;SDS011;11564;50.920;11.612;2023-05-07T06:31:10;17.60;;;9.77;;
22794;SDS011;11564;50.920;11.612;2023-05-07T06:33:40;12.90;;;9.80;;
22794;SDS011;11564;50.920;11.612;2023-05-07T06:36:05;12.23;;;9.80;;
22794;SDS011;11564;50.920;11.612;2023-05-07T06:38:31;11.10;;;9.43;;
22794;SDS011;11564;50.920;11.612;2023-05-07T06:40:57;13.17;;;10.57;;
22794;SDS011;11564;50.920;11.612;2023-05-07T06:43:22;15.73;;;12.37;;
22794;SDS011;11564;50.920;11.612;2023-05-07T06:45:48;11.93;;;9.73;;
22794;SDS011;11564;50.920;11.612;2023-05-07T06:48:14;13.83;;;11.30;;
22794;SDS011;11564;50.920;11.612;2023-05-07T06:50:39;15.73;;;10.53;;
22794;SDS011;11564;50.920;11.612;2023-05-07T06:53:06;11.87;;;10.33;;
22794;SDS011;11564;50.920;11.612;2023-05-07T06:55:32;13.87;;;11.07;;
22794;SDS011;11564;50.920;11.612;2023-05-07T06:57:57;13.60;;;11.27;;
22794;SDS011;11564;50.920;11.612;2023-05-07T07:00:26;15.53;;;11.30;;
22794;SDS011;11564;50.920;11.612;2023-05-07T07:02:52;13.50;;;10.10;;
22794;SDS011;11564;50.920;11.612;2023-05-07T07:05:18;13.90;;;11.27;;
22794;SDS011;11564;50.920;11.612;2023-05-07T07:07:44;15.00;;;10.90;;
22794;SDS011;11564;50.920;11.612;2023-05-07T07:10:09;13.70;;;11.07;;
22794;SDS011;11564;50.920;11.612;2023-05-07T07:12:35;13.77;;;10.93;;
22794;SDS011;11564;50.920;11.612;2023-05-07T07:15:00;13.40;;;10.30;;
22794;SDS011;11564;50.920;11.612;2023-05-07T07:17:27;16.03;;;11.70;;
22794;SDS011;11564;50.920;11.612;2023-05-07T07:19:53;15.47;;;11.57;;
22794;SDS011;11564;50.920;11.612;2023-05-07T07:22:19;14.40;;;11.40;;
22794;SDS011;11564;50.920;11.612;2023-05-07T07:24:44;15.17;;;12.13;;
22794;SDS011;11564;50.920;11.612;2023-05-07T07:27:10;16.47;;;12.50;;
22794;SDS011;11564;50.920;11.612;2023-05-07T07:29:36;15.73;;;12.07;;
22794;SDS011;11564;50.920;11.612;2023-05-07T07:32:01;18.50;;;13.20;;
22794;SDS011;11564;50.920;11.612;2023-05-07T07:34:27;15.90;;;12.67;;
22794;SDS011;11564;50.920;11.612;2023-05-07T07:36:52;14.67;;;12.40;;
22794;SDS011;11564;50.920;11.612;2023-05-07T07:39:18;19.80;;;13.07;;
22794;SDS011;11564;50.920;11.612;2023-05-07T07:41:44;12.37;;;11.07;;
22794;SDS011;11564;50.920;11.612;2023-05-07T07:44:09;14.30;;;12.30;;
22794;SDS011;11564;50.920;11.612;2023-05-07T07:46:37;16.23;;;12.20;;
22794;SDS011;11564;50.920;11.612;2023-05-07T07:49:03;15.17;;;12.23;;
22794;SDS011;11564;50.920;11.612;2023-05-07T07:51:29;16.20;;;12.40;;
22794;SDS011;11564;50.920;11.612;2023-05-07T07:53:55;15.53;;;12.37;;
22794;SDS011;11564;50.920;11.612;2023-05-07T07:56:22;19.70;;;13.67;;
22794;SDS011;11564;50.920;11.612;2023-05-07T07:58:48;16.50;;;12.97;;
22794;SDS011;11564;50.920;11.612;2023-05-07T08:01:14;19.43;;;13.13;;
22794;SDS011;11564;50.920;11.612;2023-05-07T08:03:39;17.77;;;13.57;;
22794;SDS011;11564;50.920;11.612;2023-05-07T08:06:05;18.00;;;13.97;;
22794;SDS011;11564;50.920;11.612;2023-05-07T08:08:31;19.67;;;14.30;;
22794;SDS011;11564;50.920;11.612;2023-05-07T08:10:56;18.10;;;13.47;;
22794;SDS011;11564;50.920;11.612;2023-05-07T08:13:22;18.50;;;14.70;;
22794;SDS011;11564;50.920;11.612;2023-05-07T08:15:48;17.53;;;13.70;;
22794;SDS011;11564;50.920;11.612;2023-05-07T08:18:13;17.90;;;14.53;;
22794;SDS011;11564;50.920;11.612;2023-05-07T08:20:40;19.53;;;13.97;;
22794;SDS011;11564;50.920;11.612;2023-05-07T08:23:07;18.00;;;13.10;;
22794;SDS011;11564;50.920;11.612;2023-05-07T08:25:33;16.17;;;13.53;;
22794;SDS011;11564;50.920;11.612;2023-05-07T08:28:00;16.67;;;13.60;;
22794;SDS011;11564;50.920;11.612;2023-05-07T08:30:25;16.80;;;12.57;;
22794;SDS011;11564;50.920;11.612;2023-05-07T08:32:51;15.80;;;13.00;;
22794;SDS011;11564;50.920;11.612;2023-05-07T08:35:17;19.50;;;13.03;;
22794;SDS011;11564;50.920;11.612;2023-05-07T08:37:43;16.13;;;11.97;;
22794;SDS011;11564;50.920;11.612;2023-05-07T08:40:09;19.47;;;12.10;;
22794;SDS011;11564;50.920;11.612;2023-05-07T08:42:35;14.87;;;12.57;;
22794;SDS011;11564;50.920;11.612;2023-05-07T08:45:05;16.70;;;12.60;;
22794;SDS011;11564;50.920;11.612;2023-05-07T08:47:38;13.83;;;11.80;;
22794;SDS011;11564;50.920;11.612;2023-05-07T08:50:08;17.03;;;12.00;;
22794;SDS011;11564;50.920;11.612;2023-05-07T08:52:34;13.93;;;11.80;;
22794;SDS011;11564;50.920;11.612;2023-05-07T08:55:01;13.57;;;11.40;;
22794;SDS011;11564;50.920;11.612;2023-05-07T08:57:28;14.10;;;11.27;;
22794;SDS011;11564;50.920;11.612;2023-05-07T08:59:53;16.13;;;11.30;;
22794;SDS011;11564;50.920;11.612;2023-05-07T09:02:19;12.93;;;10.67;;
22794;SDS011;11564;50.920;11.612;2023-05-07T09:04:45;13.07;;;11.20;;
22794;SDS011;11564;50.920;11.612;2023-05-07T09:07:11;12.20;;;10.47;;
22794;SDS011;11564;50.920;11.612;2023-05-07T09:09:36;11.30;;;9.93;;
22794;SDS011;11564;50.920;11.612;2023-05-07T09:12:02;13.70;;;11.23;;
22794;SDS011;11564;50.920;11.612;2023-05-07T09:14:29;11.80;;;9.87;;
22794;SDS011;11564;50.920;11.612;2023-05-07T09:16:55;13.27;;;10.67;;
22794;SDS011;11564;50.920;11.612;2023-05-07T09:19:25;10.50;;;9.10;;
22794;SDS011;11564;50.920;11.612;2023-05-07T09:22:01;10.70;;;9.60;;
22794;SDS011;11564;50.920;11.612;2023-05-07T09:24:28;14.87;;;11.03;;
22794;SDS011;11564;50.920;11.612;2023-05-07T09:26:58;13.43;;;9.70;;
22794;SDS011;11564;50.920;11.612;2023-05-07T09:29:25;10.73;;;9.63;;
22794;SDS011;11564;50.920;11.612;2023-05-07T09:31:51;12.53;;;10.20;;
22794;SDS011;11564;50.920;11.612;2023-05-07T09:34:16;11.20;;;8.97;;
22794;SDS011;11564;50.920;11.612;2023-05-07T09:36:42;11.10;;;8.90;;
22794;SDS011;11564;50.920;11.612;2023-05-07T09:39:08;12.47;;;10.70;;
22794;SDS011;11564;50.920;11.612;2023-05-07T09:41:36;13.80;;;10.20;;
22794;SDS011;11564;50.920;11.612;2023-05-07T09:44:09;11.63;;;10.43;;
22794;SDS011;11564;50.920;11.612;2023-05-07T09:46:35;13.63;;;10.50;;
22794;SDS011;11564;50.920;11.612;2023-05-07T09:49:03;10.90;;;9.80;;
22794;SDS011;11564;50.920;11.612;2023-05-07T09:51:49;12.37;;;9.77;;
22794;SDS011;11564;50.920;11.612;2023-05-07T09:54:16;12.60;;;10.20;;
22794;SDS011;11564;50.920;11.612;2023-05-07T09:56:43;10.13;;;9.03;;
22794;SDS011;11564;50.920;11.612;2023-05-07T09:59:13;10.10;;;8.60;;
22794;SDS011;11564;50.920;11.612;2023-05-07T10:01:41;12.20;;;10.03;;
22794;SDS011;11564;50.920;11.612;2023-05-07T10:04:07;9.90;;;8.90;;
22794;SDS011;11564;50.920;11.612;2023-05-07T10:06:34;11.07;;;9.03;;
22794;SDS011;11564;50.920;11.612;2023-05-07T10:09:01;13.67;;;9.63;;
22794;SDS011;11564;50.920;11.612;2023-05-07T10:11:27;10.23;;;8.87;;
22794;SDS011;11564;50.920;11.612;2023-05-07T10:13:53;10.83;;;9.57;;
22794;SDS011;11564;50.920;11.612;2023-05-07T10:16:19;10.30;;;9.20;;
22794;SDS011;11564;50.920;11.612;2023-05-07T10:18:46;10.63;;;9.33;;
22794;SDS011;11564;50.920;11.612;2023-05-07T10:21:17;11.13;;;9.80;;
22794;SDS011;11564;50.920;11.612;2023-05-07T10:23:55;10.53;;;9.40;;
22794;SDS011;11564;50.920;11.612;2023-05-07T10:26:35;11.37;;;9.17;;
22794;SDS011;11564;50.920;11.612;2023-05-07T10:29:12;15.00;;;9.43;;
22794;SDS011;11564;50.920;11.612;2023-05-07T10:31:51;10.93;;;9.70;;
22794;SDS011;11564;50.920;11.612;2023-05-07T10:34:24;10.57;;;9.47;;
22794;SDS011;11564;50.920;11.612;2023-05-07T10:36:59;11.77;;;10.47;;
22794;SDS011;11564;50.920;11.612;2023-05-07T10:39:25;11.37;;;9.53;;
22794;SDS011;11564;50.920;11.612;2023-05-07T10:41:52;10.87;;;9.07;;
22794;SDS011;11564;50.920;11.612;2023-05-07T10:44:27;10.23;;;9.20;;
22794;SDS011;11564;50.920;11.612;2023-05-07T10:47:15;13.63;;;10.70;;
22794;SDS011;11564;50.920;11.612;2023-05-07T10:52:13;12.23;;;9.20;;
22794;SDS011;11564;50.920;11.612;2023-05-07T10:54:43;9.57;;;8.63;;
22794;SDS011;11564;50.920;11.612;2023-05-07T10:59:58;11.20;;;8.50;;
22794;SDS011;11564;50.920;11.612;2023-05-07T11:02:23;11.97;;;9.47;;
22794;SDS011;11564;50.920;11.612;2023-05-07T11:05:24;10.40;;;9.30;;
22794;SDS011;11564;50.920;11.612;2023-05-07T11:07:55;11.13;;;9.20;;
22794;SDS011;11564;50.920;11.612;2023-05-07T11:16:21;11.57;;;9.00;;
22794;SDS011;11564;50.920;11.612;2023-05-07T11:18:55;10.20;;;9.07;;
22794;SDS011;11564;50.920;11.612;2023-05-07T11:21:40;9.70;;;8.70;;
22794;SDS011;11564;50.920;11.612;2023-05-07T11:24:07;10.87;;;8.40;;
22794;SDS011;11564;50.920;11.612;2023-05-07T11:26:44;10.50;;;8.43;;
22794;SDS011;11564;50.920;11.612;2023-05-07T11:29:12;10.77;;;8.90;;
22794;SDS011;11564;50.920;11.612;2023-05-07T11:31:51;9.30;;;8.30;;
22794;SDS011;11564;50.920;11.612;2023-05-07T11:34:22;10.73;;;9.37;;
22794;SDS011;11564;50.920;11.612;2023-05-07T11:36:49;9.43;;;8.43;;
22794;SDS011;11564;50.920;11.612;2023-05-07T11:39:25;9.87;;;8.00;;
22794;SDS011;11564;50.920;11.612;2023-05-07T11:41:57;11.60;;;8.47;;
22794;SDS011;11564;50.920;11.612;2023-05-07T11:44:23;9.83;;;7.90;;
22794;SDS011;11564;50.920;11.612;2023-05-07T11:46:49;10.63;;;8.57;;
22794;SDS011;11564;50.920;11.612;2023-05-07T11:49:15;8.90;;;8.00;;
22794;SDS011;11564;50.920;11.612;2023-05-07T11:51:41;8.07;;;7.27;;
22794;SDS011;11564;50.920;11.612;2023-05-07T11:54:07;7.73;;;6.90;;
22794;SDS011;11564;50.920;11.612;2023-05-07T11:56:36;8.47;;;7.27;;
22794;SDS011;11564;50.920;11.612;2023-05-07T11:59:02;11.50;;;7.57;;
22794;SDS011;11564;50.920;11.612;2023-05-07T12:01:28;9.50;;;7.87;;
22794;SDS011;11564;50.920;11.612;2023-05-07T12:03:53;7.53;;;6.83;;
22794;SDS011;11564;50.920;11.612;2023-05-07T12:06:19;7.53;;;6.83;;
22794;SDS011;11564;50.920;11.612;2023-05-07T12:08:45;10.40;;;7.30;;
22794;SDS011;11564;50.920;11.612;2023-05-07T12:11:29;7.03;;;6.40;;
22794;SDS011;11564;50.920;11.612;2023-05-07T12:13:55;7.87;;;7.07;;
22794;SDS011;11564;50.920;11.612;2023-05-07T12:16:20;8.07;;;6.93;;
22794;SDS011;11564;50.920;11.612;2023-05-07T12:18:48;7.57;;;6.47;;
22794;SDS011;11564;50.920;11.612;2023-05-07T12:21:14;6.53;;;5.93;;
22794;SDS011;11564;50.920;11.612;2023-05-07T12:23:39;7.80;;;7.07;;
22794;SDS011;11564;50.920;11.612;2023-05-07T12:26:05;6.87;;;6.27;;
22794;SDS011;11564;50.920;11.612;2023-05-07T12:28:35;6.90;;;5.67;;
22794;SDS011;11564;50.920;11.612;2023-05-07T12:31:03;6.73;;;6.13;;
22794;SDS011;11564;50.920;11.612;2023-05-07T12:33:29;6.83;;;6.23;;
22794;SDS011;11564;50.920;11.612;2023-05-07T12:35:56;7.20;;;6.50;;
22794;SDS011;11564;50.920;11.612;2023-05-07T12:38:22;7.57;;;6.87;;
22794;SDS011;11564;50.920;11.612;2023-05-07T12:40:48;7.70;;;6.20;;
22794;SDS011;11564;50.920;11.612;2023-05-07T12:43:26;7.40;;;6.50;;
22794;SDS011;11564;50.920;11.612;2023-05-07T12:46:03;6.27;;;5.70;;
22794;SDS011;11564;50.920;11.612;2023-05-07T12:48:30;6.93;;;6.40;;
22794;SDS011;11564;50.920;11.612;2023-05-07T12:50:57;10.60;;;6.40;;
22794;SDS011;11564;50.920;11.612;2023-05-07T12:53:24;6.00;;;5.50;;
22794;SDS011;11564;50.920;11.612;2023-05-07T12:55:55;6.60;;;5.97;;
22794;SDS011;11564;50.920;11.612;2023-05-07T12:58:31;6.23;;;5.63;;
22794;SDS011;11564;50.920;11.612;2023-05-07T13:00:59;6.10;;;5.60;;
22794;SDS011;11564;50.920;11.612;2023-05-07T13:03:27;6.07;;;5.43;;
22794;SDS011;11564;50.920;11.612;2023-05-07T13:05:55;6.73;;;6.10;;
22794;SDS011;11564;50.920;11.612;2023-05-07T13:08:34;7.40;;;6.63;;
22794;SDS011;11564;50.920;11.612;2023-05-07T13:11:01;8.37;;;6.30;;
22794;SDS011;11564;50.920;11.612;2023-05-07T13:13:31;5.43;;;5.00;;
22794;SDS011;11564;50.920;11.612;2023-05-07T13:15:57;5.70;;;5.20;;
22794;SDS011;11564;50.920;11.612;2023-05-07T13:18:24;5.10;;;4.70;;
22794;SDS011;11564;50.920;11.612;2023-05-07T13:20:50;5.50;;;5.10;;
22794;SDS011;11564;50.920;11.612;2023-05-07T13:23:17;6.40;;;4.57;;
22794;SDS011;11564;50.920;11.612;2023-05-07T13:25:42;4.67;;;4.20;;
22794;SDS011;11564;50.920;11.612;2023-05-07T13:28:08;7.00;;;5.63;;
22794;SDS011;11564;50.920;11.612;2023-05-07T13:30:34;5.07;;;4.67;;
22794;SDS011;11564;50.920;11.612;2023-05-07T13:32:59;6.60;;;6.00;;
22794;SDS011;11564;50.920;11.612;2023-05-07T13:35:25;8.60;;;6.60;;
22794;SDS011;11564;50.920;11.612;2023-05-07T13:37:51;16.47;;;8.83;;
22794;SDS011;11564;50.920;11.612;2023-05-07T13:40:18;5.73;;;4.80;;
22794;SDS011;11564;50.920;11.612;2023-05-07T13:42:44;135.67;;;30.30;;
22794;SDS011;11564;50.920;11.612;2023-05-07T13:45:10;9.67;;;5.90;;
22794;SDS011;11564;50.920;11.612;2023-05-07T13:47:38;53.63;;;15.70;;
22794;SDS011;11564;50.920;11.612;2023-05-07T13:50:08;47.90;;;14.00;;
22794;SDS011;11564;50.920;11.612;2023-05-07T13:52:34;59.63;;;16.73;;
22794;SDS011;11564;50.920;11.612;2023-05-07T13:55:00;20.00;;;7.70;;
22794;SDS011;11564;50.920;11.612;2023-05-07T13:57:26;84.73;;;23.40;;
22794;SDS011;11564;50.920;11.612;2023-05-07T13:59:51;16.20;;;7.00;;
22794;SDS011;11564;50.920;11.612;2023-05-07T14:02:17;16.40;;;7.90;;
22794;SDS011;11564;50.920;11.612;2023-05-07T14:04:42;51.53;;;21.90;;
22794;SDS011;11564;50.920;11.612;2023-05-07T14:07:08;10.70;;;7.37;;
22794;SDS011;11564;50.920;11.612;2023-05-07T14:09:34;3.97;;;3.77;;
22794;SDS011;11564;50.920;11.612;2023-05-07T14:11:59;9.83;;;8.70;;
22794;SDS011;11564;50.920;11.612;2023-05-07T14:14:26;4.13;;;3.83;;
22794;SDS011;11564;50.920;11.612;2023-05-07T14:16:52;17.00;;;12.27;;
22794;SDS011;11564;50.920;11.612;2023-05-07T14:19:17;2.90;;;2.80;;
22794;SDS011;11564;50.920;11.612;2023-05-07T14:21:43;2.97;;;2.77;;
22794;SDS011;11564;50.920;11.612;2023-05-07T14:24:09;3.97;;;3.57;;
22794;SDS011;11564;50.920;11.612;2023-05-07T14:26:34;15.27;;;9.03;;